Wednesday, March 04, 2015
02:51 UTC
  |  Log In   |  Register Free
Airport Search:

Lenawee County Airport
(KADG)

Lenawee County Airport Diagram
No Airport Diagram Available

FAA data valid effective January 08, 2015 - March 05, 2015 (unless otherwise noted).

 
 
 
 
 
 
 
 
 
 
 
 
 
 

Current Aviation Weather for Lenawee County Airport (KADG)

The most recent METAR observation for KADG was updated at: 0209
METAR Summary (Translated METAR)
KADG
040153Z AUTO 30011KT 10SM OVC014 02/M01 A2972 RMK AO2 PK WND 31027/0132 SLP075 T00171006 TSNO
KUSE
040155Z AUTO 27014G19KT 8SM OVC010 02/01 A2973 RMK AO2
(15.6 nm SW from KADG)
KDUH
040154Z AUTO 27010G16KT 10SM OVC011 03/00 A2972 RMK AO2
(20.5 nm SE from KADG)
TAF
No TAF information found within 50 nm of KADG
  Airport Weather Conditions for KADG

 Current Weather at ADG
35° F
Overcast
Northwest winds at 12.7 mph
ADG NOAA Radar

Pressure: 29.72 in
Humidity: 85%
Wind: Northwest at 12.7 MPH (11 KT)
Dew Point: 30.9°F
Visibility: 10.00 mi


Airport Weather Forecast for KADG

Translated METAR and TAF for KADG
Translated METAR for KADG (0250 UTC 04 March 2015)
found at http://aviationweather.gov/adds/metars/
 
METAR text: KADG 040226Z AUTO 30015G23KT 10SM OVC016 02/M01 A2973 RMK AO2 T00171011 TSNO
Conditions at: KADG (ADRIAN , MI, US) observed 0226 UTC 04 March 2015
Temperature: 1.7°C (35°F)
Dewpoint: -1.1°C (30°F) [RH = 82%]
Pressure (altimeter): 29.73 inches Hg (1006.9 mb)
Winds: from the WNW (300 degrees) at 17 MPH (15 knots; 7.8 m/s)
gusting to 26 MPH (23 knots; 12.0 m/s)
Visibility: 10 or more miles (16+ km)
Ceiling: 1600 feet AGL
Clouds: overcast cloud deck at 1600 feet AGL
Weather: automated observation with no human augmentation;
there may or may not be significant weather present at this time
Translated TAF for KADG

There is no translated TAF available for this airport

Find All Airport Services Find A Hotel Find A Rental Car Find A Golf Course Find A Restaurant $100 Hamburger



FBO's on the Field
FBO Company Facility Photos Services Transportation Aviation Fuel Prices: Prices include tax
Catering Weather Repair Courtesy Rental Type 100LL JetA JetA+ MOGAS 8087
 
Lenawee County Airport

This FBO has not yet been rated
FS:Avfuel
Last Updated: Feb-26
Login to update fuel prices
SS:
Contact Lenawee County AirportMore FBO Information
 
Add another FBO Facility Photos Catering Weather Repair Courtesy Rental Type 100LL JetA JetA+ MOGAS 8087
Services Transportation Aviation Fuel Prices: Prices include tax


model-print
model-print
model-print
model-print